Terminal Aerodrome Forecast
Issued by NWS

Home | Current Version | Previous Version | Text Only | Print | Product List | Glossary On
Versions: 1 2 3 4 5 6 7 8 9 10 11 12 13 14 15 16 17 18 19 20 21 22 23 24 25 26 27 28 29 30 31 32 33 34 35 36 37 38 39 40
000
FTUS43 KDTX 221700
TAFYIP
TAF
KYIP 221728Z 2218/2318 22011G17KT P6SM SKC
     FM230100 24012KT P6SM SCT060 BKN100 PROB30 2305/2308 TSRA
      BKN035 OVC060CB
     FM231200 32012KT P6SM OVC020
     FM231600 35010KT P6SM OVC040=

USA.gov is the U.S. government's official web portal to all federal, state and local government web resources and services.